MSP weather

Minneapolis-St Paul International/Wold-Chamberlain Airport
Minneapolis, Minnesota, United States

Public forecast

Using degrees Fahrenheit for public forecast. Weather courtesy of forecast.io.

METAR (pilot weather report)

Retrieved 2017/05/28 13:53 UTC (21 minutes ago):

KMSP 281353Z 30014KT 10SM FEW040 17/07 A2974 RMK AO2 SLP069 TCU DSNT NE T01720072

TAF (pilot weather forecast)

Retrieved 2017/05/28 12:40 UTC (2 hours ago):

TAF KMSP 281138Z 2812/2918 26009KT P6SM SKC FM281600 29015G24KT P6SM SCT060 FM290100 28008KT P6SM SCT060 FM291300 29013G20KT P6SM BKN025